sensor_id;sensor_type;location;lat;lon;timestamp;pressure;altitude;pressure_sealevel;temperature;humidity
49611;BME280;35515;48.766;9.176;2023-06-19T00:01:37;97870.75;;;24.50;44.21
49611;BME280;35515;48.766;9.176;2023-06-19T00:04:04;97868.28;;;24.63;43.39
49611;BME280;35515;48.766;9.176;2023-06-19T00:06:31;97870.63;;;24.56;43.59
49611;BME280;35515;48.766;9.176;2023-06-19T00:08:58;97868.78;;;24.51;43.68
49611;BME280;35515;48.766;9.176;2023-06-19T00:11:24;97875.28;;;24.46;44.08
49611;BME280;35515;48.766;9.176;2023-06-19T00:13:52;97871.66;;;24.46;43.67
49611;BME280;35515;48.766;9.176;2023-06-19T00:16:18;97870.22;;;24.48;43.74
49611;BME280;35515;48.766;9.176;2023-06-19T00:18:45;97864.69;;;24.48;43.81
49611;BME280;35515;48.766;9.176;2023-06-19T00:21:12;97876.41;;;24.45;43.96
49611;BME280;35515;48.766;9.176;2023-06-19T00:23:40;97879.47;;;24.44;43.93
49611;BME280;35515;48.766;9.176;2023-06-19T00:26:06;97873.25;;;24.38;44.64
49611;BME280;35515;48.766;9.176;2023-06-19T00:28:33;97873.97;;;24.30;45.01
49611;BME280;35515;48.766;9.176;2023-06-19T00:30:59;97879.91;;;24.23;45.31
49611;BME280;35515;48.766;9.176;2023-06-19T00:33:26;97875.66;;;24.17;45.95
49611;BME280;35515;48.766;9.176;2023-06-19T00:35:52;97884.84;;;24.12;46.05
49611;BME280;35515;48.766;9.176;2023-06-19T00:38:20;97886.28;;;24.10;46.42
49611;BME280;35515;48.766;9.176;2023-06-19T00:40:48;97885.69;;;24.13;45.52
49611;BME280;35515;48.766;9.176;2023-06-19T00:43:14;97878.31;;;24.08;46.45
49611;BME280;35515;48.766;9.176;2023-06-19T00:45:41;97882.19;;;24.07;46.03
49611;BME280;35515;48.766;9.176;2023-06-19T00:48:08;97881.06;;;24.08;46.24
49611;BME280;35515;48.766;9.176;2023-06-19T00:50:35;97888.88;;;24.06;45.97
49611;BME280;35515;48.766;9.176;2023-06-19T00:53:03;97893.78;;;24.09;46.15
49611;BME280;35515;48.766;9.176;2023-06-19T00:55:30;97885.50;;;24.09;45.65
49611;BME280;35515;48.766;9.176;2023-06-19T00:58:00;97898.09;;;24.15;45.49
49611;BME280;35515;48.766;9.176;2023-06-19T01:00:26;97898.28;;;24.19;45.20
49611;BME280;35515;48.766;9.176;2023-06-19T01:02:53;97897.56;;;24.13;45.76
49611;BME280;35515;48.766;9.176;2023-06-19T01:05:19;97893.25;;;24.07;46.46
49611;BME280;35515;48.766;9.176;2023-06-19T01:07:52;97899.22;;;24.00;46.83
49611;BME280;35515;48.766;9.176;2023-06-19T01:10:24;97906.00;;;23.94;47.22
49611;BME280;35515;48.766;9.176;2023-06-19T01:12:52;97921.84;;;23.88;47.67
49611;BME280;35515;48.766;9.176;2023-06-19T01:15:22;97944.88;;;23.84;47.63
49611;BME280;35515;48.766;9.176;2023-06-19T01:17:49;97956.16;;;23.87;47.81
49611;BME280;35515;48.766;9.176;2023-06-19T01:20:16;97965.50;;;24.06;46.20
49611;BME280;35515;48.766;9.176;2023-06-19T01:22:44;97950.66;;;24.01;45.91
49611;BME280;35515;48.766;9.176;2023-06-19T01:25:10;97966.66;;;24.18;44.63
49611;BME280;35515;48.766;9.176;2023-06-19T01:27:38;97971.56;;;24.21;44.74
49611;BME280;35515;48.766;9.176;2023-06-19T01:30:06;97958.94;;;24.29;44.63
49611;BME280;35515;48.766;9.176;2023-06-19T01:32:41;97971.56;;;24.21;44.93
49611;BME280;35515;48.766;9.176;2023-06-19T01:35:13;97955.19;;;24.11;45.06
49611;BME280;35515;48.766;9.176;2023-06-19T01:37:41;97973.72;;;24.11;45.69
49611;BME280;35515;48.766;9.176;2023-06-19T01:40:11;97981.22;;;24.10;45.13
49611;BME280;35515;48.766;9.176;2023-06-19T01:42:39;97973.00;;;24.05;45.43
49611;BME280;35515;48.766;9.176;2023-06-19T01:45:07;97971.53;;;23.94;45.64
49611;BME280;35515;48.766;9.176;2023-06-19T01:47:34;97968.88;;;23.88;45.77
49611;BME280;35515;48.766;9.176;2023-06-19T01:50:01;97976.13;;;23.84;45.89
49611;BME280;35515;48.766;9.176;2023-06-19T01:52:27;97982.97;;;23.87;46.14
49611;BME280;35515;48.766;9.176;2023-06-19T01:54:54;97979.94;;;23.88;46.69
49611;BME280;35515;48.766;9.176;2023-06-19T01:57:22;97982.13;;;24.06;46.74
49611;BME280;35515;48.766;9.176;2023-06-19T01:59:48;97969.84;;;23.98;47.00
49611;BME280;35515;48.766;9.176;2023-06-19T02:02:15;97968.66;;;23.85;47.59
49611;BME280;35515;48.766;9.176;2023-06-19T02:04:41;97979.34;;;24.06;47.21
49611;BME280;35515;48.766;9.176;2023-06-19T02:07:08;97964.41;;;23.93;48.20
49611;BME280;35515;48.766;9.176;2023-06-19T02:09:35;97964.97;;;23.76;48.44
49611;BME280;35515;48.766;9.176;2023-06-19T02:12:02;97962.91;;;23.81;48.27
49611;BME280;35515;48.766;9.176;2023-06-19T02:14:30;97963.34;;;23.88;47.97
49611;BME280;35515;48.766;9.176;2023-06-19T02:16:57;97960.28;;;23.90;48.22
49611;BME280;35515;48.766;9.176;2023-06-19T02:19:23;97961.16;;;23.71;48.59
49611;BME280;35515;48.766;9.176;2023-06-19T02:21:50;97971.50;;;23.80;48.56
49611;BME280;35515;48.766;9.176;2023-06-19T02:24:16;97963.31;;;23.75;48.56
49611;BME280;35515;48.766;9.176;2023-06-19T02:26:43;97959.81;;;23.69;48.96
49611;BME280;35515;48.766;9.176;2023-06-19T02:29:09;97959.91;;;23.64;49.19
49611;BME280;35515;48.766;9.176;2023-06-19T02:31:37;97966.16;;;23.56;49.88
49611;BME280;35515;48.766;9.176;2023-06-19T02:34:04;97966.72;;;23.52;50.09
49611;BME280;35515;48.766;9.176;2023-06-19T02:36:30;97966.72;;;23.52;50.02
49611;BME280;35515;48.766;9.176;2023-06-19T02:38:57;97974.75;;;23.54;51.28
49611;BME280;35515;48.766;9.176;2023-06-19T02:41:23;97976.47;;;23.50;50.84
49611;BME280;35515;48.766;9.176;2023-06-19T02:43:50;97971.06;;;23.59;50.79
49611;BME280;35515;48.766;9.176;2023-06-19T02:46:16;97976.09;;;23.57;50.58
49611;BME280;35515;48.766;9.176;2023-06-19T02:48:44;97973.41;;;23.51;51.94
49611;BME280;35515;48.766;9.176;2023-06-19T02:51:11;97971.22;;;23.48;51.37
49611;BME280;35515;48.766;9.176;2023-06-19T02:53:37;97976.25;;;23.46;51.70
49611;BME280;35515;48.766;9.176;2023-06-19T02:56:04;97982.09;;;23.45;52.22
49611;BME280;35515;48.766;9.176;2023-06-19T02:58:32;97990.88;;;23.47;51.70
49611;BME280;35515;48.766;9.176;2023-06-19T03:00:58;97991.63;;;23.52;51.43
49611;BME280;35515;48.766;9.176;2023-06-19T03:03:25;97986.78;;;23.44;51.78
49611;BME280;35515;48.766;9.176;2023-06-19T03:05:53;97996.22;;;23.43;51.93
49611;BME280;35515;48.766;9.176;2023-06-19T03:08:19;97994.03;;;23.40;52.51
49611;BME280;35515;48.766;9.176;2023-06-19T03:10:46;98004.00;;;23.55;51.68
49611;BME280;35515;48.766;9.176;2023-06-19T03:13:12;97992.84;;;23.46;51.59
49611;BME280;35515;48.766;9.176;2023-06-19T03:15:39;98003.28;;;23.49;52.30
49611;BME280;35515;48.766;9.176;2023-06-19T03:18:05;97997.25;;;23.47;51.74
49611;BME280;35515;48.766;9.176;2023-06-19T03:20:34;98009.44;;;23.46;51.84
49611;BME280;35515;48.766;9.176;2023-06-19T03:23:02;98009.94;;;23.48;51.91
49611;BME280;35515;48.766;9.176;2023-06-19T03:25:29;98002.97;;;23.51;52.06
49611;BME280;35515;48.766;9.176;2023-06-19T03:28:00;98017.09;;;23.49;51.69
49611;BME280;35515;48.766;9.176;2023-06-19T03:30:26;98007.22;;;23.62;52.00
49611;BME280;35515;48.766;9.176;2023-06-19T03:32:53;98012.53;;;23.59;51.98
49611;BME280;35515;48.766;9.176;2023-06-19T03:35:19;98012.81;;;23.43;52.23
49611;BME280;35515;48.766;9.176;2023-06-19T03:37:46;98011.66;;;23.44;51.89
49611;BME280;35515;48.766;9.176;2023-06-19T03:40:14;98016.28;;;23.49;52.97
49611;BME280;35515;48.766;9.176;2023-06-19T03:42:41;98016.47;;;23.38;55.04
49611;BME280;35515;48.766;9.176;2023-06-19T03:45:08;98030.34;;;23.33;54.67
49611;BME280;35515;48.766;9.176;2023-06-19T03:47:35;98030.50;;;23.23;55.89
49611;BME280;35515;48.766;9.176;2023-06-19T03:50:01;98022.59;;;23.35;56.15
49611;BME280;35515;48.766;9.176;2023-06-19T03:52:28;98027.03;;;23.12;56.63
49611;BME280;35515;48.766;9.176;2023-06-19T03:54:54;98034.91;;;23.05;58.24
49611;BME280;35515;48.766;9.176;2023-06-19T03:57:22;98033.25;;;23.04;58.35
49611;BME280;35515;48.766;9.176;2023-06-19T03:59:49;98046.09;;;22.95;57.68
49611;BME280;35515;48.766;9.176;2023-06-19T04:02:17;98045.28;;;22.94;58.13
49611;BME280;35515;48.766;9.176;2023-06-19T04:04:43;98050.31;;;22.87;57.24
49611;BME280;35515;48.766;9.176;2023-06-19T04:07:10;98052.28;;;22.86;58.13
49611;BME280;35515;48.766;9.176;2023-06-19T04:09:36;98053.88;;;22.93;57.82
49611;BME280;35515;48.766;9.176;2023-06-19T04:12:04;98064.75;;;22.84;57.52
49611;BME280;35515;48.766;9.176;2023-06-19T04:14:32;98069.44;;;22.83;58.31
49611;BME280;35515;48.766;9.176;2023-06-19T04:16:58;98074.44;;;22.81;58.59
49611;BME280;35515;48.766;9.176;2023-06-19T04:19:25;98066.16;;;22.81;59.64
49611;BME280;35515;48.766;9.176;2023-06-19T04:21:51;98069.03;;;22.71;59.96
49611;BME280;35515;48.766;9.176;2023-06-19T04:24:19;98064.66;;;22.70;60.48
49611;BME280;35515;48.766;9.176;2023-06-19T04:26:46;98066.38;;;22.66;59.99
49611;BME280;35515;48.766;9.176;2023-06-19T04:29:12;98059.75;;;22.62;61.23
49611;BME280;35515;48.766;9.176;2023-06-19T04:31:44;98060.91;;;22.61;61.54
49611;BME280;35515;48.766;9.176;2023-06-19T04:34:12;98060.91;;;22.61;61.24
49611;BME280;35515;48.766;9.176;2023-06-19T04:36:39;98057.66;;;22.53;60.74
49611;BME280;35515;48.766;9.176;2023-06-19T04:39:06;98053.13;;;22.63;60.81
49611;BME280;35515;48.766;9.176;2023-06-19T04:41:33;98044.28;;;22.66;59.94
49611;BME280;35515;48.766;9.176;2023-06-19T04:44:04;98043.78;;;22.59;60.74
49611;BME280;35515;48.766;9.176;2023-06-19T04:46:31;98057.34;;;22.55;61.12
49611;BME280;35515;48.766;9.176;2023-06-19T04:48:59;98053.72;;;22.60;60.83
49611;BME280;35515;48.766;9.176;2023-06-19T04:51:29;98056.50;;;22.60;60.44
49611;BME280;35515;48.766;9.176;2023-06-19T04:53:55;98055.13;;;22.57;60.67
49611;BME280;35515;48.766;9.176;2023-06-19T04:56:22;98062.00;;;22.60;60.74
49611;BME280;35515;48.766;9.176;2023-06-19T04:58:49;98068.59;;;22.64;60.89
49611;BME280;35515;48.766;9.176;2023-06-19T05:01:17;98070.44;;;22.68;60.67
49611;BME280;35515;48.766;9.176;2023-06-19T05:03:47;98079.63;;;22.64;61.04
49611;BME280;35515;48.766;9.176;2023-06-19T05:06:15;98077.31;;;22.71;61.19
49611;BME280;35515;48.766;9.176;2023-06-19T05:08:42;98087.84;;;22.69;61.07
49611;BME280;35515;48.766;9.176;2023-06-19T05:11:08;98078.09;;;22.77;60.91
49611;BME280;35515;48.766;9.176;2023-06-19T05:13:35;98080.06;;;22.71;61.18
49611;BME280;35515;48.766;9.176;2023-06-19T05:16:01;98080.97;;;22.66;60.86
49611;BME280;35515;48.766;9.176;2023-06-19T05:18:28;98075.69;;;22.70;61.72
49611;BME280;35515;48.766;9.176;2023-06-19T05:20:54;98074.03;;;22.69;61.04
49611;BME280;35515;48.766;9.176;2023-06-19T05:23:22;98072.66;;;22.91;60.50
49611;BME280;35515;48.766;9.176;2023-06-19T05:25:49;98073.34;;;23.01;60.59
49611;BME280;35515;48.766;9.176;2023-06-19T05:28:15;98067.81;;;22.82;60.96
49611;BME280;35515;48.766;9.176;2023-06-19T05:30:42;98069.56;;;22.73;60.74
49611;BME280;35515;48.766;9.176;2023-06-19T05:33:08;98062.94;;;22.74;61.69
49611;BME280;35515;48.766;9.176;2023-06-19T05:35:41;98078.38;;;22.75;61.05
49611;BME280;35515;48.766;9.176;2023-06-19T05:38:08;98081.97;;;22.76;61.62
49611;BME280;35515;48.766;9.176;2023-06-19T05:40:36;98074.03;;;22.69;62.33
49611;BME280;35515;48.766;9.176;2023-06-19T05:43:02;98080.91;;;22.71;62.37
49611;BME280;35515;48.766;9.176;2023-06-19T05:45:29;98081.13;;;22.75;61.82
49611;BME280;35515;48.766;9.176;2023-06-19T05:47:55;98078.53;;;22.84;61.69
49611;BME280;35515;48.766;9.176;2023-06-19T05:50:22;98088.31;;;22.76;61.69
49611;BME280;35515;48.766;9.176;2023-06-19T05:52:48;98093.94;;;22.90;61.39
49611;BME280;35515;48.766;9.176;2023-06-19T05:55:15;98100.63;;;22.84;60.93
49611;BME280;35515;48.766;9.176;2023-06-19T05:57:43;98105.06;;;23.04;60.92
49611;BME280;35515;48.766;9.176;2023-06-19T06:00:10;98106.59;;;22.91;60.48
49611;BME280;35515;48.766;9.176;2023-06-19T06:02:39;98105.19;;;22.94;61.45
49611;BME280;35515;48.766;9.176;2023-06-19T06:05:07;98109.09;;;22.93;62.50
49611;BME280;35515;48.766;9.176;2023-06-19T06:07:35;98115.44;;;22.93;61.67
49611;BME280;35515;48.766;9.176;2023-06-19T06:10:01;98126.38;;;23.03;61.83
49611;BME280;35515;48.766;9.176;2023-06-19T06:12:28;98125.88;;;22.96;62.21
49611;BME280;35515;48.766;9.176;2023-06-19T06:14:56;98126.13;;;23.00;61.95
49611;BME280;35515;48.766;9.176;2023-06-19T06:17:23;98127.78;;;23.01;61.74
49611;BME280;35515;48.766;9.176;2023-06-19T06:19:49;98116.13;;;23.04;62.05
49611;BME280;35515;48.766;9.176;2023-06-19T06:22:16;98122.19;;;23.06;61.75
49611;BME280;35515;48.766;9.176;2023-06-19T06:24:43;98122.59;;;23.18;61.03
49611;BME280;35515;48.766;9.176;2023-06-19T06:27:11;98125.91;;;23.20;61.68
49611;BME280;35515;48.766;9.176;2023-06-19T06:29:38;98136.09;;;23.20;61.42
49611;BME280;35515;48.766;9.176;2023-06-19T06:32:07;98134.25;;;23.15;61.56
49611;BME280;35515;48.766;9.176;2023-06-19T06:34:34;98140.28;;;23.17;61.20
49611;BME280;35515;48.766;9.176;2023-06-19T06:37:01;98147.16;;;23.20;61.69
49611;BME280;35515;48.766;9.176;2023-06-19T06:39:27;98138.38;;;23.37;60.47
49611;BME280;35515;48.766;9.176;2023-06-19T06:41:54;98142.78;;;23.38;60.09
49611;BME280;35515;48.766;9.176;2023-06-19T06:44:20;98135.53;;;23.42;60.21
49611;BME280;35515;48.766;9.176;2023-06-19T06:46:47;98150.34;;;23.51;59.45
49611;BME280;35515;48.766;9.176;2023-06-19T06:49:15;98143.22;;;23.64;59.03
49611;BME280;35515;48.766;9.176;2023-06-19T06:51:42;98147.19;;;23.58;59.04
49611;BME280;35515;48.766;9.176;2023-06-19T06:54:09;98146.81;;;23.65;58.97
49611;BME280;35515;48.766;9.176;2023-06-19T06:56:36;98156.66;;;23.71;57.56
49611;BME280;35515;48.766;9.176;2023-06-19T06:59:02;98146.47;;;23.85;56.73
49611;BME280;35515;48.766;9.176;2023-06-19T07:01:29;98152.41;;;23.79;57.04
49611;BME280;35515;48.766;9.176;2023-06-19T07:03:55;98152.84;;;23.86;56.66
49611;BME280;35515;48.766;9.176;2023-06-19T07:06:23;98148.28;;;23.76;56.81
49611;BME280;35515;48.766;9.176;2023-06-19T07:08:50;98171.00;;;24.11;55.31
49611;BME280;35515;48.766;9.176;2023-06-19T07:11:16;98157.81;;;23.89;56.06
49611;BME280;35515;48.766;9.176;2023-06-19T07:13:43;98171.69;;;23.84;56.32
49611;BME280;35515;48.766;9.176;2023-06-19T07:16:09;98162.66;;;23.78;56.43
49611;BME280;35515;48.766;9.176;2023-06-19T07:18:36;98157.50;;;23.71;56.58
49611;BME280;35515;48.766;9.176;2023-06-19T07:21:07;98159.66;;;23.94;55.91
49611;BME280;35515;48.766;9.176;2023-06-19T07:23:38;98160.84;;;23.87;55.47
49611;BME280;35515;48.766;9.176;2023-06-19T07:26:05;98165.25;;;23.88;55.44
49611;BME280;35515;48.766;9.176;2023-06-19T07:28:32;98161.44;;;23.84;55.41
49611;BME280;35515;48.766;9.176;2023-06-19T07:31:01;98161.38;;;23.90;55.82
49611;BME280;35515;48.766;9.176;2023-06-19T07:33:28;98159.34;;;24.14;54.54
49611;BME280;35515;48.766;9.176;2023-06-19T07:35:54;98164.59;;;23.97;55.09
49611;BME280;35515;48.766;9.176;2023-06-19T07:38:21;98172.22;;;24.05;54.95
49611;BME280;35515;48.766;9.176;2023-06-19T07:40:49;98172.22;;;24.05;55.32
49611;BME280;35515;48.766;9.176;2023-06-19T07:43:15;98176.63;;;24.06;54.85
49611;BME280;35515;48.766;9.176;2023-06-19T07:45:42;98174.81;;;24.15;55.26
49611;BME280;35515;48.766;9.176;2023-06-19T07:48:09;98171.84;;;24.26;54.79
49611;BME280;35515;48.766;9.176;2023-06-19T07:50:35;98180.47;;;24.24;54.83
49611;BME280;35515;48.766;9.176;2023-06-19T07:53:02;98182.34;;;24.29;54.91
49611;BME280;35515;48.766;9.176;2023-06-19T07:55:28;98182.34;;;24.29;54.25
49611;BME280;35515;48.766;9.176;2023-06-19T07:57:56;98184.28;;;24.28;54.32
49611;BME280;35515;48.766;9.176;2023-06-19T08:00:23;98185.22;;;24.37;54.10
49611;BME280;35515;48.766;9.176;2023-06-19T08:02:49;98184.19;;;24.33;54.55
49611;BME280;35515;48.766;9.176;2023-06-19T08:05:16;98183.41;;;24.47;53.96
49611;BME280;35515;48.766;9.176;2023-06-19T08:07:42;98176.19;;;24.46;54.45
49611;BME280;35515;48.766;9.176;2023-06-19T08:10:09;98183.28;;;24.38;54.64
49611;BME280;35515;48.766;9.176;2023-06-19T08:12:36;98173.25;;;24.42;54.41
49611;BME280;35515;48.766;9.176;2023-06-19T08:15:05;98180.53;;;24.38;54.58
49611;BME280;35515;48.766;9.176;2023-06-19T08:17:32;98187.91;;;24.43;54.26
49611;BME280;35515;48.766;9.176;2023-06-19T08:19:58;98177.75;;;24.38;53.56
49611;BME280;35515;48.766;9.176;2023-06-19T08:22:25;98184.50;;;24.32;53.84
49611;BME280;35515;48.766;9.176;2023-06-19T08:24:51;98173.50;;;24.27;54.23
49611;BME280;35515;48.766;9.176;2023-06-19T08:27:18;98171.84;;;24.26;54.40
49611;BME280;35515;48.766;9.176;2023-06-19T08:29:44;98171.56;;;24.27;54.30
49611;BME280;35515;48.766;9.176;2023-06-19T08:32:12;98164.69;;;24.25;54.17
49611;BME280;35515;48.766;9.176;2023-06-19T08:34:39;98166.31;;;24.26;54.41
49611;BME280;35515;48.766;9.176;2023-06-19T08:37:06;98169.41;;;24.24;54.94
49611;BME280;35515;48.766;9.176;2023-06-19T08:39:33;98169.84;;;24.31;53.60
49611;BME280;35515;48.766;9.176;2023-06-19T08:42:01;98172.38;;;24.28;54.42
49611;BME280;35515;48.766;9.176;2023-06-19T08:44:27;98167.75;;;24.23;54.65
49611;BME280;35515;48.766;9.176;2023-06-19T08:46:54;98168.19;;;24.30;54.37
49611;BME280;35515;48.766;9.176;2023-06-19T08:49:22;98160.28;;;24.24;54.22
49611;BME280;35515;48.766;9.176;2023-06-19T08:51:49;98163.56;;;24.26;54.10
49611;BME280;35515;48.766;9.176;2023-06-19T08:54:15;98148.91;;;24.25;54.53
49611;BME280;35515;48.766;9.176;2023-06-19T08:56:42;98154.84;;;24.32;54.32
49611;BME280;35515;48.766;9.176;2023-06-19T08:59:09;98159.72;;;24.41;54.22
49611;BME280;35515;48.766;9.176;2023-06-19T09:01:36;98146.06;;;24.44;54.02
49611;BME280;35515;48.766;9.176;2023-06-19T09:04:10;98144.06;;;24.64;53.17
49611;BME280;35515;48.766;9.176;2023-06-19T09:06:47;98145.09;;;24.68;52.77
49611;BME280;35515;48.766;9.176;2023-06-19T09:09:14;98138.34;;;24.74;52.63
49611;BME280;35515;48.766;9.176;2023-06-19T09:11:40;98144.28;;;24.81;52.83
49611;BME280;35515;48.766;9.176;2023-06-19T09:14:08;98143.06;;;24.87;52.38
49611;BME280;35515;48.766;9.176;2023-06-19T09:16:40;98148.19;;;24.94;51.71
49611;BME280;35515;48.766;9.176;2023-06-19T09:19:07;98142.72;;;25.03;51.54
49611;BME280;35515;48.766;9.176;2023-06-19T09:21:36;98129.91;;;25.07;51.30
49611;BME280;35515;48.766;9.176;2023-06-19T09:24:05;98135.03;;;25.14;51.14
49611;BME280;35515;48.766;9.176;2023-06-19T09:26:32;98125.56;;;25.29;49.74
49611;BME280;35515;48.766;9.176;2023-06-19T09:29:09;98130.78;;;25.44;49.16
49611;BME280;35515;48.766;9.176;2023-06-19T09:31:36;98132.50;;;25.54;48.98
49611;BME280;35515;48.766;9.176;2023-06-19T09:34:03;98127.78;;;25.54;48.42
49611;BME280;35515;48.766;9.176;2023-06-19T09:36:31;98129.84;;;25.49;48.97
49611;BME280;35515;48.766;9.176;2023-06-19T09:38:59;98124.50;;;25.52;49.08
49611;BME280;35515;48.766;9.176;2023-06-19T09:41:29;98118.16;;;25.75;48.60
49611;BME280;35515;48.766;9.176;2023-06-19T09:43:56;98123.81;;;25.69;48.79
49611;BME280;35515;48.766;9.176;2023-06-19T09:46:27;98126.47;;;25.75;47.73
49611;BME280;35515;48.766;9.176;2023-06-19T09:48:58;98119.09;;;25.70;47.83
49611;BME280;35515;48.766;9.176;2023-06-19T09:51:30;98128.16;;;25.62;47.80
49611;BME280;35515;48.766;9.176;2023-06-19T09:53:57;98130.31;;;25.65;47.73
49611;BME280;35515;48.766;9.176;2023-06-19T09:56:24;98126.47;;;25.75;48.00
49611;BME280;35515;48.766;9.176;2023-06-19T09:58:56;98127.88;;;25.86;49.39
49611;BME280;35515;48.766;9.176;2023-06-19T10:01:23;98129.97;;;26.03;49.35
49611;BME280;35515;48.766;9.176;2023-06-19T10:04:01;98124.00;;;25.96;50.02
49611;BME280;35515;48.766;9.176;2023-06-19T10:06:28;98124.66;;;25.93;50.03
49611;BME280;35515;48.766;9.176;2023-06-19T10:08:55;98137.88;;;25.96;49.53
49611;BME280;35515;48.766;9.176;2023-06-19T10:11:21;98130.53;;;25.91;49.60
49611;BME280;35515;48.766;9.176;2023-06-19T10:13:49;98130.56;;;26.00;49.36
49611;BME280;35515;48.766;9.176;2023-06-19T10:16:23;98121.88;;;25.93;49.27
49611;BME280;35515;48.766;9.176;2023-06-19T10:18:50;98127.78;;;26.00;49.44
49611;BME280;35515;48.766;9.176;2023-06-19T10:21:17;98122.22;;;26.14;48.64
49611;BME280;35515;48.766;9.176;2023-06-19T10:23:53;98114.63;;;26.06;48.95
49611;BME280;35515;48.766;9.176;2023-06-19T10:26:20;98111.38;;;26.03;49.11
49611;BME280;35515;48.766;9.176;2023-06-19T10:28:47;98117.41;;;26.06;48.79
49611;BME280;35515;48.766;9.176;2023-06-19T10:31:13;98109.69;;;26.02;48.47
49611;BME280;35515;48.766;9.176;2023-06-19T10:33:41;98104.97;;;26.03;48.54
49611;BME280;35515;48.766;9.176;2023-06-19T10:36:15;98104.00;;;26.30;48.76
49611;BME280;35515;48.766;9.176;2023-06-19T10:38:42;98112.81;;;26.32;48.56
49611;BME280;35515;48.766;9.176;2023-06-19T10:41:14;98104.19;;;26.34;49.03
49611;BME280;35515;48.766;9.176;2023-06-19T10:43:41;98107.13;;;26.37;49.02
49611;BME280;35515;48.766;9.176;2023-06-19T10:46:07;98105.81;;;26.35;48.79
49611;BME280;35515;48.766;9.176;2023-06-19T10:48:34;98106.97;;;26.34;48.55
49611;BME280;35515;48.766;9.176;2023-06-19T10:51:02;98102.47;;;26.15;49.10
49611;BME280;35515;48.766;9.176;2023-06-19T10:53:31;98106.09;;;26.25;50.25
49611;BME280;35515;48.766;9.176;2023-06-19T10:55:59;98109.03;;;26.28;50.23
49611;BME280;35515;48.766;9.176;2023-06-19T10:58:26;98102.59;;;26.10;51.40
49611;BME280;35515;48.766;9.176;2023-06-19T11:00:53;98112.06;;;26.09;51.50
49611;BME280;35515;48.766;9.176;2023-06-19T11:03:20;98112.84;;;26.10;51.16
49611;BME280;35515;48.766;9.176;2023-06-19T11:05:47;98108.38;;;26.00;51.62
49611;BME280;35515;48.766;9.176;2023-06-19T11:08:19;98116.47;;;26.10;50.84
49611;BME280;35515;48.766;9.176;2023-06-19T11:10:46;98116.69;;;26.00;51.39
49611;BME280;35515;48.766;9.176;2023-06-19T11:13:14;98122.25;;;26.00;51.10
49611;BME280;35515;48.766;9.176;2023-06-19T11:15:41;98113.81;;;26.05;50.93
49611;BME280;35515;48.766;9.176;2023-06-19T11:18:08;98108.28;;;26.05;51.52
49611;BME280;35515;48.766;9.176;2023-06-19T11:20:43;98106.50;;;26.09;52.15
49611;BME280;35515;48.766;9.176;2023-06-19T11:23:10;98093.84;;;26.26;51.34
49611;BME280;35515;48.766;9.176;2023-06-19T11:25:39;98095.88;;;26.43;50.97
49611;BME280;35515;48.766;9.176;2023-06-19T11:28:11;98090.59;;;26.32;50.93
49611;BME280;35515;48.766;9.176;2023-06-19T11:30:39;98090.00;;;26.44;50.83
49611;BME280;35515;48.766;9.176;2023-06-19T11:33:15;98102.13;;;26.48;50.66
49611;BME280;35515;48.766;9.176;2023-06-19T11:35:47;98100.50;;;26.47;50.35
49611;BME280;35515;48.766;9.176;2023-06-19T11:38:17;98099.53;;;26.52;50.27
49611;BME280;35515;48.766;9.176;2023-06-19T11:40:45;98097.06;;;26.50;50.41
49611;BME280;35515;48.766;9.176;2023-06-19T11:43:12;98094.16;;;26.56;49.86
49611;BME280;35515;48.766;9.176;2023-06-19T11:45:46;98103.28;;;26.47;50.11
49611;BME280;35515;48.766;9.176;2023-06-19T11:48:13;98098.59;;;26.57;49.62
49611;BME280;35515;48.766;9.176;2023-06-19T11:50:40;98091.38;;;26.56;50.19
49611;BME280;35515;48.766;9.176;2023-06-19T11:53:07;98083.66;;;26.84;48.88
49611;BME280;35515;48.766;9.176;2023-06-19T11:55:35;98088.03;;;26.76;49.10
49611;BME280;35515;48.766;9.176;2023-06-19T11:58:05;98078.19;;;26.70;49.04
49611;BME280;35515;48.766;9.176;2023-06-19T12:00:32;98087.75;;;26.86;48.44
49611;BME280;35515;48.766;9.176;2023-06-19T12:02:58;98081.72;;;26.84;48.26
49611;BME280;35515;48.766;9.176;2023-06-19T12:05:25;98072.03;;;26.73;48.64
49611;BME280;35515;48.766;9.176;2023-06-19T12:07:51;98075.97;;;26.81;48.39
49611;BME280;35515;48.766;9.176;2023-06-19T12:10:18;98076.78;;;26.81;48.43
49611;BME280;35515;48.766;9.176;2023-06-19T12:12:45;98074.66;;;26.78;48.32
49611;BME280;35515;48.766;9.176;2023-06-19T12:15:13;98083.13;;;26.73;48.58
49611;BME280;35515;48.766;9.176;2023-06-19T12:17:40;98074.81;;;26.73;48.39
49611;BME280;35515;48.766;9.176;2023-06-19T12:20:08;98075.31;;;26.75;48.15
49611;BME280;35515;48.766;9.176;2023-06-19T12:22:34;98061.13;;;26.94;47.61
49611;BME280;35515;48.766;9.176;2023-06-19T12:25:01;98059.50;;;27.02;47.56
49611;BME280;35515;48.766;9.176;2023-06-19T12:27:28;98052.31;;;27.01;47.46
49611;BME280;35515;48.766;9.176;2023-06-19T12:29:55;98051.94;;;26.94;47.50
49611;BME280;35515;48.766;9.176;2023-06-19T12:32:22;98046.25;;;26.99;48.10
49611;BME280;35515;48.766;9.176;2023-06-19T12:34:49;98052.16;;;27.15;47.48
49611;BME280;35515;48.766;9.176;2023-06-19T12:37:19;98051.50;;;27.27;47.26
49611;BME280;35515;48.766;9.176;2023-06-19T12:39:46;98049.84;;;27.26;47.49
49611;BME280;35515;48.766;9.176;2023-06-19T12:42:13;98057.41;;;27.16;47.69
49611;BME280;35515;48.766;9.176;2023-06-19T12:44:40;98051.03;;;27.25;47.31
49611;BME280;35515;48.766;9.176;2023-06-19T12:47:07;98060.50;;;27.24;48.00
49611;BME280;35515;48.766;9.176;2023-06-19T12:49:35;98054.44;;;27.22;47.32
49611;BME280;35515;48.766;9.176;2023-06-19T12:52:02;98057.06;;;27.18;46.97
49611;BME280;35515;48.766;9.176;2023-06-19T12:54:29;98055.09;;;27.18;47.18
49611;BME280;35515;48.766;9.176;2023-06-19T12:56:55;98054.13;;;27.14;47.60
49611;BME280;35515;48.766;9.176;2023-06-19T12:59:22;98061.16;;;27.12;47.30
49611;BME280;35515;48.766;9.176;2023-06-19T13:01:49;98056.06;;;27.05;47.40